»·PEaware :: N2067Q KHWD-O22

N2067Q :: KHWD-O22

FLIGHT INFORMATION

Flight Status: Arrived
Operator: Privately registered:
United States
More flights under this callsign
Pilot: Andrzej B. (30)
Aircraft: BEECH AIRCRAFT DEBONAIR BONANZA
(BE33)
More flights by this aircraft type
Origin: KHWD Hayward Executive
United States
Destination: O22 Columbia
United States
More flights between these airports :: More routes between these airports
Route: +
File this flight plan on PilotEdge
Remarks: Student Pilot Practice
Altitude:
(Current/Filed)
5,500ft
Speed:
(Current/Filed)
160kts
Departed: 28-Apr-12 09:18 AM
Arrived: 28-Apr-12 09:59 AM
Distance/Time
Traveled:
84nm/0:41
Distance/Time
To Go:
Arrived

Flight Plot

Page will automatically refresh every two minutes.

Flight plan parsing failed; only flown route is shown


Map Options




Map Legend


Flown Route
Filed Route
Departure Airport
Arrival Airport
Navaid (VOR, NDB)
Fix

Horizontal Profiles

Position Reports

Time Latitude Longitude Heading Altitude Ground
Speed
28-Apr-12 08:45 37.661656 -122.121882 211 54ft 0kts
28-Apr-12 08:46 37.661656 -122.121882 211 54ft 0kts
28-Apr-12 08:47 37.661656 -122.121882 211 54ft 0kts
28-Apr-12 08:48 37.661656 -122.121882 211 54ft 0kts
28-Apr-12 08:49 37.661656 -122.121882 211 54ft 0kts
28-Apr-12 08:50 37.661656 -122.121882 211 54ft 0kts
28-Apr-12 08:51 37.661656 -122.121882 211 54ft 0kts
28-Apr-12 08:52 37.661656 -122.121882 211 54ft 0kts
28-Apr-12 08:53 37.661656 -122.121882 211 54ft 0kts
28-Apr-12 08:54 37.661656 -122.121882 211 54ft 0kts
28-Apr-12 08:55 37.661656 -122.121882 211 54ft 0kts
28-Apr-12 08:56 37.661656 -122.121882 211 54ft 0kts
28-Apr-12 08:57 37.661656 -122.121882 211 54ft 0kts
28-Apr-12 08:58 37.661656 -122.121882 211 54ft 0kts
28-Apr-12 08:59 37.661656 -122.121882 211 54ft 0kts
28-Apr-12 09:00 37.661656 -122.121882 211 54ft 0kts
28-Apr-12 09:01 37.661656 -122.121882 211 54ft 0kts
28-Apr-12 09:02 37.661656 -122.121882 211 54ft 0kts
28-Apr-12 09:03 37.661656 -122.121882 211 54ft 0kts
28-Apr-12 09:04 37.661656 -122.121882 211 54ft 0kts
28-Apr-12 09:05 37.661656 -122.121882 211 54ft 0kts
28-Apr-12 09:06 37.661656 -122.121882 211 54ft 0kts
28-Apr-12 09:07 37.661656 -122.121882 211 54ft 0kts
28-Apr-12 09:08 37.661656 -122.121882 211 54ft 0kts
28-Apr-12 09:09 37.661656 -122.121882 211 54ft 0kts
28-Apr-12 09:10 37.661656 -122.121882 211 54ft 0kts
28-Apr-12 09:11 37.661570 -122.121955 214 54ft 2kts
28-Apr-12 09:12 37.660553 -122.121280 118 54ft 6kts
28-Apr-12 09:13 37.659397 -122.118771 122 54ft 13kts
28-Apr-12 09:14 37.657356 -122.115947 144 54ft 11kts
28-Apr-12 09:15 37.655517 -122.113251 119 54ft 10kts
28-Apr-12 09:16 37.654247 -122.112439 274 54ft 0kts
28-Apr-12 09:17 37.657363 -122.119739 295 96ft 82kts
28-Apr-12 09:18 37.671917 -122.135477 14 1305ft 73kts
28-Apr-12 09:19 37.679674 -122.111523 82 2338ft 76kts
28-Apr-12 09:20 37.681529 -122.091670 79 2990ft 88kts
28-Apr-12 09:20 37.681798 -122.068393 90 3513ft 115kts
28-Apr-12 09:21 37.681808 -122.037316 84 3870ft 144kts
28-Apr-12 09:22 37.688538 -121.999151 74 3541ft 189kts
28-Apr-12 09:23 37.705603 -121.920423 75 3964ft 151kts
28-Apr-12 09:24 37.715945 -121.869763 75 4402ft 145kts
28-Apr-12 09:25 37.722877 -121.821076 84 4929ft 137kts
28-Apr-12 09:26 37.728142 -121.774027 80 5411ft 137kts
28-Apr-12 09:27 37.734010 -121.723643 83 5537ft 153kts
28-Apr-12 09:28 37.738976 -121.668429 81 5593ft 161kts
28-Apr-12 09:29 37.742781 -121.609692 73 5377ft 172kts
28-Apr-12 09:30 37.755322 -121.551679 70 5303ft 170kts
28-Apr-12 09:31 37.769561 -121.494174 70 5267ft 170kts
28-Apr-12 09:32 37.781561 -121.436659 76 5347ft 172kts
28-Apr-12 09:33 37.792452 -121.377380 73 5433ft 170kts
28-Apr-12 09:35 37.811393 -121.256734 77 5418ft 169kts
28-Apr-12 09:37 37.840675 -121.149594 62 3663ft 152kts
28-Apr-12 09:38 37.851092 -121.101127 73 3484ft 141kts
28-Apr-12 09:39 37.862375 -121.053887 74 3316ft 140kts
28-Apr-12 09:40 37.871670 -121.007904 67 3294ft 131kts
28-Apr-12 09:41 37.883863 -120.964297 62 3233ft 130kts
28-Apr-12 09:42 37.897788 -120.922018 62 3198ft 129kts
28-Apr-12 09:43 37.909446 -120.878909 69 3157ft 130kts
28-Apr-12 09:44 37.920368 -120.835765 61 3136ft 127kts
28-Apr-12 09:45 37.935751 -120.795657 58 3133ft 125kts
28-Apr-12 09:46 37.949754 -120.755059 62 3222ft 125kts
28-Apr-12 09:47 37.960809 -120.713013 69 3272ft 126kts
28-Apr-12 09:48 37.968193 -120.669565 76 3295ft 125kts
28-Apr-12 09:49 37.972944 -120.625239 76 3240ft 127kts
28-Apr-12 09:50 37.978947 -120.587188 71 3222ft 125kts
28-Apr-12 09:51 37.988421 -120.545306 60 3288ft 120kts
28-Apr-12 09:52 37.999246 -120.505260 78 3343ft 124kts
28-Apr-12 09:53 38.000533 -120.461795 54 3363ft 121kts
28-Apr-12 09:54 38.026428 -120.442147 7 3324ft 81kts
28-Apr-12 09:55 38.045818 -120.437696 1 3284ft 88kts
28-Apr-12 09:56 38.057389 -120.420005 96 3485ft 92kts
28-Apr-12 09:57 38.035246 -120.411814 194 2266ft 94kts
28-Apr-12 09:58 38.025182 -120.414200 189 2121ft 15kts
28-Apr-12 09:59 38.025071 -120.415016 10 2121ft 0kts
28-Apr-12 10:00 38.025071 -120.415016 10 2121ft 0kts

Navigation Log

Ident Type
Flight plan parsing failed, navigation log unavailable